Time;durP1;ratioP1;P1;durP2;ratioP2;P2;SDS_P1;SDS_P2;PMS_P1;PMS_P2;Temp;Humidity;BMP_temperature;BMP_pressure;BME280_temperature;BME280_humidity;BME280_pressure;Samples;Min_cycle;Max_cycle;Signal;HPM_P1;HPM_P2
2024/02/28 00:01:53;;;;;;;;;;;;;;;9.40;59.64;100095.09;5051006;28;20352;-84
2024/02/28 00:04:18;;;;;;;;;;;;;;;9.37;58.76;100100.66;5052277;28;19951;-84
2024/02/28 00:06:43;;;;;;;;;;;;;;;9.36;58.98;100100.81;5050345;28;19916;-84
2024/02/28 00:09:13;;;;;;;;;;;;;;;9.27;58.63;100099.94;5050679;28;20340;-84
2024/02/28 00:11:45;;;;;;;;;;;;;;;9.18;59.14;100098.25;5050554;28;20314;-84
2024/02/28 00:14:14;;;;;;;;;;;;;;;9.19;59.06;100115.72;5051731;28;20382;-84
2024/02/28 00:16:42;;;;;;;;;;;;;;;9.14;59.23;100089.84;5050688;28;20412;-84
2024/02/28 00:19:08;;;;;;;;;;;;;;;9.12;59.19;100097.06;5051707;28;19999;-84
2024/02/28 00:21:33;;;;;;;;;;;;;;;9.09;59.16;100093.91;5051641;28;19955;-84
2024/02/28 00:23:59;;;;;;;;;;;;;;;9.08;59.40;100095.72;5050441;28;19966;-85
2024/02/28 00:26:24;;;;;;;;;;;;;;;9.06;59.45;100096.88;5051595;28;19917;-84
2024/02/28 00:28:49;;;;;;;;;;;;;;;9.09;59.35;100096.56;5050321;28;19920;-84
2024/02/28 00:31:14;;;;;;;;;;;;;;;9.07;59.13;100104.59;5051625;28;20390;-84
2024/02/28 00:33:40;;;;;;;;;;;;;;;9.04;58.92;100104.91;5051543;28;19966;-85
2024/02/28 00:36:05;;;;;;;;;;;;;;;9.02;59.31;100101.59;5051668;28;19916;-84
2024/02/28 00:38:30;;;;;;;;;;;;;;;9.04;59.09;100098.81;5051466;28;20386;-84
2024/02/28 00:40:56;;;;;;;;;;;;;;;9.06;59.19;100110.03;5051404;28;19919;-85
2024/02/28 00:43:21;;;;;;;;;;;;;;;9.03;59.18;100115.59;5051522;28;19905;-84
2024/02/28 00:45:46;;;;;;;;;;;;;;;8.97;59.14;100108.31;5051425;28;19913;-84
2024/02/28 00:48:11;;;;;;;;;;;;;;;8.97;59.08;100110.97;5050393;28;19916;-85
2024/02/28 00:50:37;;;;;;;;;;;;;;;8.98;58.89;100102.06;5051754;28;19913;-85
2024/02/28 00:53:02;;;;;;;;;;;;;;;8.91;58.97;100093.94;5050091;28;19912;-83
2024/02/28 00:55:28;;;;;;;;;;;;;;;8.86;59.12;100099.66;5051430;28;20433;-83
2024/02/28 00:57:53;;;;;;;;;;;;;;;8.84;59.07;100106.06;5051308;28;19913;-84
2024/02/28 01:00:18;;;;;;;;;;;;;;;8.77;59.17;100103.22;5051237;28;19920;-84
2024/02/28 01:02:43;;;;;;;;;;;;;;;8.70;59.41;100096.06;5049855;28;19924;-84
2024/02/28 01:05:09;;;;;;;;;;;;;;;8.54;59.75;100100.22;5051360;28;19923;-84
2024/02/28 01:07:34;;;;;;;;;;;;;;;8.56;59.90;100107.97;5049855;28;19917;-84
2024/02/28 01:09:59;;;;;;;;;;;;;;;8.58;59.73;100101.56;5051145;28;20008;-84
2024/02/28 01:12:25;;;;;;;;;;;;;;;8.63;59.78;100100.28;5051157;28;19912;-85
2024/02/28 01:14:50;;;;;;;;;;;;;;;8.65;59.65;100100.97;5051059;28;20445;-84
2024/02/28 01:17:15;;;;;;;;;;;;;;;8.69;59.51;100097.06;5051228;28;19913;-85
2024/02/28 01:19:40;;;;;;;;;;;;;;;8.70;59.04;100102.16;5053029;28;19913;-84
2024/02/28 01:22:06;;;;;;;;;;;;;;;8.69;59.42;100095.25;5055136;28;20374;-84
2024/02/28 01:24:33;;;;;;;;;;;;;;;8.71;59.29;100103.00;5054926;28;19913;-85
2024/02/28 01:26:58;;;;;;;;;;;;;;;8.69;59.22;100105.78;5053780;28;20360;-84
2024/02/28 01:29:23;;;;;;;;;;;;;;;8.68;59.14;100106.75;5055087;28;19948;-85
2024/02/28 01:31:49;;;;;;;;;;;;;;;8.70;58.97;100102.16;5053698;28;19917;-84
2024/02/28 01:34:14;;;;;;;;;;;;;;;8.68;58.97;100112.03;5054700;28;19913;-84
2024/02/28 01:36:39;;;;;;;;;;;;;;;8.66;58.77;100108.72;5053461;28;20313;-84
2024/02/28 01:39:04;;;;;;;;;;;;;;;8.62;58.66;100115.25;5054532;28;19939;-84
2024/02/28 01:41:30;;;;;;;;;;;;;;;8.59;58.81;100115.56;5054635;28;19912;-84
2024/02/28 01:43:55;;;;;;;;;;;;;;;8.56;58.83;100121.13;5053465;28;19913;-84
2024/02/28 01:46:25;;;;;;;;;;;;;;;8.54;58.50;100130.97;5054742;28;19917;-84
2024/02/28 01:48:50;;;;;;;;;;;;;;;8.51;58.65;100129.47;5054663;28;19919;-84
2024/02/28 01:51:16;;;;;;;;;;;;;;;8.44;58.39;100125.78;5054631;28;19999;-85
2024/02/28 01:53:42;;;;;;;;;;;;;;;8.38;58.50;100115.03;5054450;28;19966;-85
2024/02/28 01:56:08;;;;;;;;;;;;;;;8.35;58.53;100115.34;5054280;28;19917;-84
2024/02/28 01:58:33;;;;;;;;;;;;;;;8.31;58.83;100119.22;5053099;28;19913;-85
2024/02/28 02:00:59;;;;;;;;;;;;;;;8.22;58.68;100111.25;5054354;28;20286;-84
2024/02/28 02:03:24;;;;;;;;;;;;;;;8.17;58.96;100110.84;5052863;28;19928;-85
2024/02/28 02:05:49;;;;;;;;;;;;;;;8.15;58.57;100122.47;5054045;28;19919;-85
2024/02/28 02:08:15;;;;;;;;;;;;;;;8.12;59.19;100115.72;5054242;28;19912;-85
2024/02/28 02:10:41;;;;;;;;;;;;;;;8.07;58.64;100117.13;5053043;28;20313;-85
2024/02/28 02:13:06;;;;;;;;;;;;;;;8.07;59.01;100119.75;5054436;28;20451;-84
2024/02/28 02:15:32;;;;;;;;;;;;;;;8.06;59.18;100126.00;5054037;28;19993;-84
2024/02/28 02:17:57;;;;;;;;;;;;;;;8.01;58.80;100115.91;5053959;28;19996;-84
2024/02/28 02:20:22;;;;;;;;;;;;;;;8.01;58.89;100115.91;5054001;28;20283;-85
2024/02/28 02:22:48;;;;;;;;;;;;;;;8.02;58.97;100117.56;5052610;28;19959;-85
2024/02/28 02:25:13;;;;;;;;;;;;;;;8.02;58.86;100117.56;5052640;28;19920;-85
2024/02/28 02:27:38;;;;;;;;;;;;;;;8.03;58.98;100121.03;5054002;28;19947;-85
2024/02/28 02:30:04;;;;;;;;;;;;;;;8.03;58.77;100121.84;5053818;28;19913;-85
2024/02/28 02:32:30;;;;;;;;;;;;;;;8.02;59.02;100117.56;5054060;28;19912;-85
2024/02/28 02:34:55;;;;;;;;;;;;;;;8.03;58.99;100119.22;5052417;28;19963;-85
2024/02/28 02:37:21;;;;;;;;;;;;;;;8.09;58.81;100123.91;5053763;28;19913;-85
2024/02/28 02:39:46;;;;;;;;;;;;;;;8.12;59.07;100134.13;5053963;28;19913;-83
2024/02/28 02:42:14;;;;;;;;;;;;;;;8.18;58.66;100138.81;5053720;28;19924;-84
2024/02/28 02:44:40;;;;;;;;;;;;;;;8.23;58.55;100144.47;5053625;28;20306;-84
2024/02/28 02:47:05;;;;;;;;;;;;;;;8.27;58.42;100135.28;5053962;28;19916;-85
2024/02/28 02:49:30;;;;;;;;;;;;;;;8.31;58.47;100143.72;5052332;28;19913;-84
2024/02/28 02:51:55;;;;;;;;;;;;;;;8.31;58.24;100141.09;5053515;28;19913;-84
2024/02/28 02:54:21;;;;;;;;;;;;;;;8.33;58.49;100140.94;5052173;28;20365;-84
2024/02/28 02:56:46;;;;;;;;;;;;;;;8.36;58.12;100140.69;5051985;28;19971;-85
2024/02/28 02:59:14;;;;;;;;;;;;;;;8.35;58.05;100146.91;5052121;28;19996;-85
2024/02/28 03:01:39;;;;;;;;;;;;;;;8.33;58.06;100152.31;5051972;28;20100;-84
2024/02/28 03:04:05;;;;;;;;;;;;;;;8.26;58.42;100152.06;5051914;28;20015;-85
2024/02/28 03:06:30;;;;;;;;;;;;;;;8.25;58.39;100152.22;5051987;28;19920;-84
2024/02/28 03:08:55;;;;;;;;;;;;;;;8.22;58.58;100157.75;5051795;28;19913;-85
2024/02/28 03:11:20;;;;;;;;;;;;;;;8.19;58.68;100153.63;5051847;28;20390;-84
2024/02/28 03:13:46;;;;;;;;;;;;;;;8.16;59.24;100153.06;5053239;28;19943;-84
2024/02/28 03:16:11;;;;;;;;;;;;;;;8.13;58.90;100158.63;5053156;28;19963;-85
2024/02/28 03:18:37;;;;;;;;;;;;;;;8.09;59.20;100158.09;5051741;28;20386;-85
2024/02/28 03:21:03;;;;;;;;;;;;;;;8.09;59.75;100160.72;5051614;28;19952;-85
2024/02/28 03:23:28;;;;;;;;;;;;;;;8.12;59.62;100170.13;5052852;28;19936;-85
2024/02/28 03:25:54;;;;;;;;;;;;;;;8.17;59.57;100167.88;5052905;28;19913;-85
2024/02/28 03:28:19;;;;;;;;;;;;;;;8.24;59.25;100177.69;5051326;28;19951;-85
2024/02/28 03:30:44;;;;;;;;;;;;;;;8.26;60.10;100182.78;5052648;28;20305;-85
2024/02/28 03:33:10;;;;;;;;;;;;;;;8.26;59.67;100186.25;5052860;28;19942;-84
2024/02/28 03:35:35;;;;;;;;;;;;;;;8.24;60.49;100180.31;5052536;28;19912;-85
2024/02/28 03:38:00;;;;;;;;;;;;;;;8.21;59.76;100191.13;5052378;28;19935;-84
2024/02/28 03:40:25;;;;;;;;;;;;;;;8.16;60.15;100190.72;5052103;28;19913;-84
2024/02/28 03:42:51;;;;;;;;;;;;;;;8.15;60.65;100196.94;5051922;28;19919;-84
2024/02/28 03:45:16;;;;;;;;;;;;;;;8.17;60.93;100189.75;5052666;28;19913;-83
2024/02/28 03:47:41;;;;;;;;;;;;;;;8.22;60.19;100187.53;5051132;28;19928;-83
2024/02/28 03:50:07;;;;;;;;;;;;;;;8.24;59.73;100188.22;5052566;28;19912;-83
2024/02/28 03:52:32;;;;;;;;;;;;;;;8.24;59.68;100185.56;5052554;28;19909;-85
2024/02/28 03:54:58;;;;;;;;;;;;;;;8.22;60.73;100182.25;5050850;28;19917;-85
2024/02/28 03:57:23;;;;;;;;;;;;;;;8.14;61.83;100192.66;5050890;28;19912;-85
2024/02/28 03:59:48;;;;;;;;;;;;;;;7.96;63.13;100197.88;5052144;28;19919;-85
2024/02/28 04:02:13;;;;;;;;;;;;;;;7.88;62.75;100199.56;5051976;28;20465;-85
2024/02/28 04:04:39;;;;;;;;;;;;;;;7.79;64.77;100193.38;5052177;28;19913;-85
2024/02/28 04:07:04;;;;;;;;;;;;;;;7.86;63.40;100191.00;5052036;28;20003;-85
2024/02/28 04:09:29;;;;;;;;;;;;;;;7.89;64.28;100199.44;5052176;28;19913;-85
2024/02/28 04:11:54;;;;;;;;;;;;;;;7.96;62.00;100189.16;5052007;28;19913;-85
2024/02/28 04:14:20;;;;;;;;;;;;;;;8.00;63.07;100187.06;5050636;28;20286;-85
2024/02/28 04:16:45;;;;;;;;;;;;;;;8.03;62.95;100190.22;5050669;28;19967;-84
2024/02/28 04:19:11;;;;;;;;;;;;;;;8.05;64.02;100182.19;5050525;28;19943;-85
2024/02/28 04:21:36;;;;;;;;;;;;;;;8.10;62.29;100177.31;5050468;28;19913;-85
2024/02/28 04:24:01;;;;;;;;;;;;;;;8.04;63.80;100178.72;5050655;28;19913;-84
2024/02/28 04:26:27;;;;;;;;;;;;;;;8.01;64.89;100186.09;5050453;28;19924;-83
2024/02/28 04:28:52;;;;;;;;;;;;;;;8.08;63.18;100181.91;5050345;28;20007;-84
2024/02/28 04:31:17;;;;;;;;;;;;;;;8.10;63.50;100180.78;5051496;28;20368;-85
2024/02/28 04:33:42;;;;;;;;;;;;;;;8.15;62.91;100175.91;5050296;28;20071;-84
2024/02/28 04:36:08;;;;;;;;;;;;;;;8.16;64.08;100182.81;5050238;28;19912;-84
2024/02/28 04:38:33;;;;;;;;;;;;;;;8.09;65.49;100187.00;5051569;28;20003;-85
2024/02/28 04:40:58;;;;;;;;;;;;;;;8.11;64.67;100189.50;5051627;28;19912;-85
2024/02/28 04:43:23;;;;;;;;;;;;;;;8.06;65.29;100187.31;5051404;28;20381;-84
2024/02/28 04:45:49;;;;;;;;;;;;;;;8.06;64.12;100183.84;5050062;28;19913;-85
2024/02/28 04:48:14;;;;;;;;;;;;;;;8.06;64.60;100189.09;5050082;28;19917;-85
2024/02/28 04:50:39;;;;;;;;;;;;;;;8.06;63.58;100189.94;5051634;28;19913;-85
2024/02/28 04:53:04;;;;;;;;;;;;;;;8.11;64.17;100190.31;5050025;28;19970;-84
2024/02/28 04:55:30;;;;;;;;;;;;;;;8.10;64.85;100187.84;5051170;28;20397;-84
2024/02/28 04:57:55;;;;;;;;;;;;;;;8.11;64.29;100194.75;5049962;28;19919;-85
2024/02/28 05:00:20;;;;;;;;;;;;;;;8.08;63.78;100195.06;5049958;28;19942;-85
2024/02/28 05:02:45;;;;;;;;;;;;;;;8.00;65.01;100198.41;5051185;28;19974;-84
2024/02/28 05:05:11;;;;;;;;;;;;;;;8.00;65.30;100206.28;5051439;28;19939;-85
2024/02/28 05:07:36;;;;;;;;;;;;;;;7.97;64.93;100209.22;5051255;28;20485;-84
2024/02/28 05:10:01;;;;;;;;;;;;;;;7.95;66.38;100211.16;5051134;28;19919;-84
2024/02/28 05:12:27;;;;;;;;;;;;;;;7.98;65.60;100210.88;5051074;28;20404;-84
2024/02/28 05:14:52;;;;;;;;;;;;;;;8.04;65.76;100215.56;5051091;28;20313;-85
2024/02/28 05:17:17;;;;;;;;;;;;;;;8.06;65.34;100212.78;5051135;28;20400;-84
2024/02/28 05:19:42;;;;;;;;;;;;;;;8.09;64.50;100209.84;5049877;28;19966;-83
2024/02/28 05:22:09;;;;;;;;;;;;;;;8.06;65.16;100220.66;5051089;28;19920;-85
2024/02/28 05:24:35;;;;;;;;;;;;;;;8.02;65.70;100221.94;5049930;28;20350;-84
2024/02/28 05:27:00;;;;;;;;;;;;;;;8.03;65.67;100218.31;5051141;28;20056;-85
2024/02/28 05:29:26;;;;;;;;;;;;;;;8.07;66.20;100220.53;5051282;28;19913;-85
2024/02/28 05:31:51;;;;;;;;;;;;;;;8.13;64.25;100227.00;5049817;28;19913;-84
2024/02/28 05:34:16;;;;;;;;;;;;;;;8.06;65.52;100223.28;5049936;28;20373;-84
2024/02/28 05:36:42;;;;;;;;;;;;;;;7.97;66.97;100228.44;5051136;28;19943;-84
2024/02/28 05:39:08;;;;;;;;;;;;;;;7.95;66.15;100235.66;5051177;28;19965;-84
2024/02/28 05:41:33;;;;;;;;;;;;;;;8.01;65.60;100236.88;5049813;28;20350;-85
2024/02/28 05:43:58;;;;;;;;;;;;;;;7.95;67.11;100233.03;5050940;28;19987;-84
2024/02/28 05:46:24;;;;;;;;;;;;;;;7.92;67.32;100235.94;5049523;28;20364;-84
2024/02/28 05:48:49;;;;;;;;;;;;;;;7.99;66.70;100244.09;5050707;28;19912;-84
2024/02/28 05:51:15;;;;;;;;;;;;;;;8.02;65.90;100240.34;5049348;28;19916;-84
2024/02/28 05:53:41;;;;;;;;;;;;;;;8.08;65.28;100245.84;5049546;28;19940;-84
2024/02/28 05:56:16;;;;;;;;;;;;;;;8.06;65.57;100239.91;5049535;28;19974;-85
2024/02/28 05:58:45;;;;;;;;;;;;;;;8.04;64.81;100235.75;5049646;28;20348;-85
2024/02/28 06:01:11;;;;;;;;;;;;;;;8.03;65.16;100249.88;5050694;28;19920;-85
2024/02/28 06:03:37;;;;;;;;;;;;;;;8.02;65.27;100243.78;5050782;28;19912;-84
2024/02/28 06:06:04;;;;;;;;;;;;;;;8.07;65.17;100251.25;5054142;28;20313;-84
2024/02/28 06:08:31;;;;;;;;;;;;;;;8.14;64.29;100253.16;5054597;28;19913;-84
2024/02/28 06:10:56;;;;;;;;;;;;;;;8.19;64.07;100256.22;5053015;28;19913;-85
2024/02/28 06:13:21;;;;;;;;;;;;;;;8.17;64.52;100268.66;5054123;28;19913;-85
2024/02/28 06:15:47;;;;;;;;;;;;;;;8.22;64.30;100263.81;5052883;28;19912;-85
2024/02/28 06:18:12;;;;;;;;;;;;;;;8.31;64.09;100256.03;5052765;28;19920;-85
2024/02/28 06:20:37;;;;;;;;;;;;;;;8.37;65.03;100258.09;5053973;28;20309;-85
2024/02/28 06:23:03;;;;;;;;;;;;;;;8.47;64.73;100254.44;5050800;28;20015;-85
2024/02/28 06:25:28;;;;;;;;;;;;;;;8.51;64.81;100255.81;5085120;28;19916;-85
2024/02/28 06:27:54;;;;;;;;;;;;;;;8.55;64.35;100261.59;5073694;28;19916;-84
2024/02/28 06:30:19;;;;;;;;;;;;;;;8.55;65.01;100264.22;5072539;28;20285;-85
2024/02/28 06:32:44;;;;;;;;;;;;;;;8.57;64.22;100262.28;5073914;28;20361;-84
2024/02/28 06:35:10;;;;;;;;;;;;;;;8.58;64.23;100274.47;5065947;28;20007;-85
2024/02/28 06:37:35;;;;;;;;;;;;;;;8.58;64.01;100277.94;5052877;28;19920;-84
2024/02/28 06:40:00;;;;;;;;;;;;;;;8.60;63.76;100275.16;5053765;28;19913;-85
2024/02/28 06:42:26;;;;;;;;;;;;;;;8.59;65.46;100291.91;5066866;28;20325;-84
2024/02/28 06:44:51;;;;;;;;;;;;;;;8.62;64.52;100289.00;5073472;28;20305;-84
2024/02/28 06:47:18;;;;;;;;;;;;;;;8.59;65.50;100289.28;5073378;28;20320;-85
2024/02/28 06:49:43;;;;;;;;;;;;;;;8.57;65.13;100289.44;5073400;28;19912;-85
2024/02/28 06:52:08;;;;;;;;;;;;;;;8.61;65.25;100295.22;5071499;28;19913;-83
2024/02/28 06:54:34;;;;;;;;;;;;;;;8.63;65.51;100293.28;5053527;28;19912;-85
2024/02/28 06:56:59;;;;;;;;;;;;;;;8.61;64.44;100297.88;5053358;28;19952;-85
2024/02/28 06:59:24;;;;;;;;;;;;;;;8.63;64.92;100295.91;5054395;28;19912;-84
2024/02/28 07:01:49;;;;;;;;;;;;;;;8.64;65.35;100296.75;5048655;28;19969;-85
2024/02/28 07:04:15;;;;;;;;;;;;;;;8.71;65.42;100292.53;5031961;28;20306;-85
2024/02/28 07:06:40;;;;;;;;;;;;;;;8.75;65.23;100294.72;5039446;28;19970;-85
2024/02/28 07:09:07;;;;;;;;;;;;;;;8.79;64.64;100298.72;5073258;28;20416;-85
2024/02/28 07:11:33;;;;;;;;;;;;;;;8.89;64.99;100296.84;5073263;28;19935;-84
2024/02/28 07:14:01;;;;;;;;;;;;;;;8.92;64.47;100306.28;5073204;28;20377;-84
2024/02/28 07:16:27;;;;;;;;;;;;;;;8.95;62.92;100297.28;5070774;28;19919;-85
2024/02/28 07:18:52;;;;;;;;;;;;;;;8.97;64.42;100303.22;5072958;28;20305;-84
2024/02/28 07:21:18;;;;;;;;;;;;;;;9.03;63.79;100302.63;5058832;28;20008;-85
2024/02/28 07:23:43;;;;;;;;;;;;;;;9.11;63.75;100297.44;5059512;28;20042;-81
2024/02/28 07:26:08;;;;;;;;;;;;;;;9.13;65.22;100298.09;5072396;28;19923;-84
2024/02/28 07:28:33;;;;;;;;;;;;;;;9.17;64.34;100307.38;5071474;28;19991;-84
2024/02/28 07:30:59;;;;;;;;;;;;;;;9.20;65.48;100301.78;5072995;28;19912;-83
2024/02/28 07:33:24;;;;;;;;;;;;;;;9.19;64.97;100308.88;5072598;28;19919;-84
2024/02/28 07:35:52;;;;;;;;;;;;;;;9.25;64.89;100307.44;5056743;28;19917;-83
2024/02/28 07:38:20;;;;;;;;;;;;;;;9.18;66.01;100301.13;5042116;28;19923;-83
2024/02/28 07:40:45;;;;;;;;;;;;;;;9.21;64.60;100293.75;5036090;28;19923;-86
2024/02/28 07:43:10;;;;;;;;;;;;;;;9.33;64.40;100299.59;5047896;28;20297;-83
2024/02/28 07:45:35;;;;;;;;;;;;;;;9.41;64.24;100294.41;5044764;28;19917;-83
2024/02/28 07:48:01;;;;;;;;;;;;;;;9.53;63.37;100285.28;5072389;28;19917;-83
2024/02/28 07:50:26;;;;;;;;;;;;;;;9.60;64.18;100290.75;5058991;28;20007;-84
2024/02/28 07:52:53;;;;;;;;;;;;;;;9.66;64.02;100290.19;5052303;28;20004;-83
2024/02/28 07:55:19;;;;;;;;;;;;;;;9.75;63.40;100299.81;5048216;28;19982;-83
2024/02/28 07:57:45;;;;;;;;;;;;;;;9.89;64.11;100306.31;5041237;28;19917;-83
2024/02/28 08:00:12;;;;;;;;;;;;;;;10.01;63.48;100306.91;5052252;28;19920;-82
2024/02/28 08:02:39;;;;;;;;;;;;;;;10.02;63.64;100313.81;5051869;28;19924;-82
2024/02/28 08:05:04;;;;;;;;;;;;;;;10.07;63.66;100307.09;5059303;28;20389;-83
2024/02/28 08:07:29;;;;;;;;;;;;;;;10.10;63.88;100304.16;5071743;28;19963;-83
2024/02/28 08:09:54;;;;;;;;;;;;;;;10.07;64.62;100314.19;5071951;28;20009;-82
2024/02/28 08:12:20;;;;;;;;;;;;;;;10.04;64.12;100317.13;5071016;28;20317;-83
2024/02/28 08:14:45;;;;;;;;;;;;;;;10.01;64.06;100315.63;5066723;28;19920;-82
2024/02/28 08:17:13;;;;;;;;;;;;;;;9.99;64.12;100322.88;5052781;28;19917;-82
2024/02/28 08:19:38;;;;;;;;;;;;;;;10.02;63.54;100319.94;5040899;28;19924;-82
2024/02/28 08:22:03;;;;;;;;;;;;;;;10.05;64.15;100316.97;5038225;28;19909;-81
2024/02/28 08:24:29;;;;;;;;;;;;;;;9.92;65.10;100319.19;5064045;28;19965;-82
2024/02/28 08:26:55;;;;;;;;;;;;;;;9.95;64.40;100320.69;5065804;28;19950;-83
2024/02/28 08:29:20;;;;;;;;;;;;;;;10.02;64.79;100314.66;5069852;28;20023;-82
2024/02/28 08:31:45;;;;;;;;;;;;;;;10.13;64.96;100313.56;5050391;28;20393;-82
2024/02/28 08:34:11;;;;;;;;;;;;;;;10.17;63.21;100309.63;5051361;28;19923;-83
2024/02/28 08:36:36;;;;;;;;;;;;;;;10.34;63.17;100319.31;5051390;28;20420;-82
2024/02/28 08:39:04;;;;;;;;;;;;;;;10.46;63.74;100315.44;5041844;28;19917;-82
2024/02/28 08:41:29;;;;;;;;;;;;;;;10.61;63.69;100320.94;5031527;28;19917;-81
2024/02/28 08:43:55;;;;;;;;;;;;;;;10.75;63.33;100314.22;5030332;28;19913;-81
2024/02/28 08:46:20;;;;;;;;;;;;;;;10.87;62.86;100315.59;5047881;28;19916;-81
2024/02/28 08:48:45;;;;;;;;;;;;;;;10.99;63.30;100305.53;5041291;28;19940;-81
2024/02/28 08:51:11;;;;;;;;;;;;;;;11.12;62.29;100305.88;5037333;28;19932;-81
2024/02/28 08:53:36;;;;;;;;;;;;;;;11.15;63.28;100305.59;5054756;28;20417;-81
2024/02/28 08:56:01;;;;;;;;;;;;;;;11.24;62.22;100309.91;5062221;28;19916;-80
2024/02/28 08:58:27;;;;;;;;;;;;;;;11.31;62.07;100316.19;5053461;28;20059;-81
2024/02/28 09:00:52;;;;;;;;;;;;;;;11.29;61.93;100312.06;5029588;28;20418;-82
2024/02/28 09:03:19;;;;;;;;;;;;;;;11.28;61.87;100310.41;5040637;28;19921;-82
2024/02/28 09:05:44;;;;;;;;;;;;;;;11.37;61.78;100298.84;5029929;28;19950;-81
2024/02/28 09:08:10;;;;;;;;;;;;;;;11.49;61.94;100301.97;5037134;28;20357;-83
2024/02/28 09:10:35;;;;;;;;;;;;;;;11.54;62.35;100297.03;5062244;28;19917;-82
2024/02/28 09:13:00;;;;;;;;;;;;;;;11.60;62.09;100304.28;5051204;28;19947;-82
2024/02/28 09:15:25;;;;;;;;;;;;;;;11.67;61.38;100295.53;5042865;28;20007;-81
2024/02/28 09:17:51;;;;;;;;;;;;;;;11.75;61.41;100292.03;5049153;28;19917;-82
2024/02/28 09:20:16;;;;;;;;;;;;;;;11.84;61.18;100295.53;5050691;28;20424;-81
2024/02/28 09:22:42;;;;;;;;;;;;;;;11.87;60.58;100290.75;5053748;28;19923;-82
2024/02/28 09:25:08;;;;;;;;;;;;;;;11.92;61.30;100292.91;5050403;28;19971;-82
2024/02/28 09:27:34;;;;;;;;;;;;;;;11.98;61.15;100284.28;5046549;28;19920;-82
2024/02/28 09:29:59;;;;;;;;;;;;;;;12.07;60.74;100283.28;5055010;28;20054;-83
2024/02/28 09:32:24;;;;;;;;;;;;;;;12.12;60.38;100288.88;5049035;28;20005;-82
2024/02/28 09:34:49;;;;;;;;;;;;;;;12.20;60.65;100282.75;5052947;28;19916;-81
2024/02/28 09:37:16;;;;;;;;;;;;;;;12.32;60.22;100276.09;5044484;28;19923;-81
2024/02/28 09:39:42;;;;;;;;;;;;;;;12.39;60.40;100271.75;5032394;28;19920;-82
2024/02/28 09:42:10;;;;;;;;;;;;;;;12.49;60.32;100274.19;5060720;28;19943;-81
2024/02/28 09:44:36;;;;;;;;;;;;;;;12.56;59.61;100278.63;5035542;28;20331;-81
2024/02/28 09:47:01;;;;;;;;;;;;;;;12.65;59.77;100274.16;5046852;28;19927;-81
2024/02/28 09:49:28;;;;;;;;;;;;;;;12.73;59.40;100264.31;5048648;28;19923;-82
2024/02/28 09:51:54;;;;;;;;;;;;;;;12.81;59.06;100260.81;5048448;28;19917;-82
2024/02/28 09:54:19;;;;;;;;;;;;;;;12.89;59.18;100258.09;5042283;28;20382;-82
2024/02/28 09:56:44;;;;;;;;;;;;;;;12.99;58.61;100263.19;5053389;28;20019;-81
2024/02/28 09:59:10;;;;;;;;;;;;;;;13.09;58.65;100260.28;5055517;28;19920;-81
2024/02/28 10:01:41;;;;;;;;;;;;;;;13.24;58.40;100259.38;5036787;28;19928;-81
2024/02/28 10:04:07;;;;;;;;;;;;;;;13.42;58.39;100245.84;5053236;28;20007;-81
2024/02/28 10:06:32;;;;;;;;;;;;;;;13.72;57.16;100243.22;5035483;28;20383;-81
2024/02/28 10:08:58;;;;;;;;;;;;;;;13.88;56.90;100241.22;5051723;28;20368;-82
2024/02/28 10:11:24;;;;;;;;;;;;;;;14.00;56.95;100234.47;5049786;28;19999;-81
2024/02/28 10:13:49;;;;;;;;;;;;;;;14.14;56.77;100224.88;5037076;28;19950;-81
2024/02/28 10:16:17;;;;;;;;;;;;;;;14.28;56.49;100236.47;5046365;28;19916;-81
2024/02/28 10:18:43;;;;;;;;;;;;;;;14.41;55.96;100220.72;5045641;28;19913;-81
2024/02/28 10:21:09;;;;;;;;;;;;;;;14.54;55.75;100215.56;5037801;28;19917;-82
2024/02/28 10:23:36;;;;;;;;;;;;;;;14.71;55.44;100208.19;5057340;28;20316;-81
2024/02/28 10:26:02;;;;;;;;;;;;;;;14.83;55.10;100203.22;5051785;28;20396;-82
2024/02/28 10:28:27;;;;;;;;;;;;;;;14.98;54.91;100200.50;5058132;28;19921;-82
2024/02/28 10:30:53;;;;;;;;;;;;;;;14.99;54.86;100196.84;5061706;28;20389;-81
2024/02/28 10:33:19;;;;;;;;;;;;;;;15.07;54.54;100192.22;5071042;28;19923;-81
2024/02/28 10:35:44;;;;;;;;;;;;;;;15.21;54.06;100188.66;5064863;28;19917;-81
2024/02/28 10:38:10;;;;;;;;;;;;;;;15.24;54.15;100177.63;5053437;28;19925;-81
2024/02/28 10:40:35;;;;;;;;;;;;;;;15.37;53.96;100181.41;5041783;28;19924;-81
2024/02/28 10:43:02;;;;;;;;;;;;;;;15.51;53.82;100185.78;5040984;28;19957;-81
2024/02/28 10:45:30;;;;;;;;;;;;;;;15.69;53.79;100180.88;5052294;28;19924;-81
2024/02/28 10:47:56;;;;;;;;;;;;;;;15.80;53.10;100169.66;5049766;28;20365;-81
2024/02/28 10:50:21;;;;;;;;;;;;;;;15.87;52.84;100173.19;5069212;28;19913;-81
2024/02/28 10:52:50;;;;;;;;;;;;;;;15.99;53.19;100167.28;5056254;28;19913;-81
2024/02/28 10:55:18;;;;;;;;;;;;;;;16.10;51.37;100161.41;5038145;28;20443;-81
2024/02/28 10:57:46;;;;;;;;;;;;;;;16.17;52.12;100154.25;5032469;28;19952;-80
2024/02/28 11:00:13;;;;;;;;;;;;;;;16.28;52.16;100148.34;5033430;28;19917;-82
2024/02/28 11:02:38;;;;;;;;;;;;;;;16.40;51.81;100141.44;5032623;28;19921;-80
2024/02/28 11:05:04;;;;;;;;;;;;;;;16.49;51.44;100134.09;5038700;28;19974;-81
2024/02/28 11:07:30;;;;;;;;;;;;;;;16.57;50.85;100128.56;5047768;28;19921;-82
2024/02/28 11:09:56;;;;;;;;;;;;;;;16.74;50.84;100123.69;5041690;28;19920;-81
2024/02/28 11:12:25;;;;;;;;;;;;;;;16.84;50.62;100122.25;5052894;28;19913;-81
2024/02/28 11:14:57;;;;;;;;;;;;;;;16.98;50.56;100119.59;5034295;28;19924;-80
2024/02/28 11:17:26;;;;;;;;;;;;;;;17.09;49.67;100116.31;5051659;28;19968;-82
2024/02/28 11:19:51;;;;;;;;;;;;;;;17.17;50.44;100108.13;5051073;28;20333;-82
2024/02/28 11:22:18;;;;;;;;;;;;;;;17.26;49.85;100101.53;5044301;28;19924;-82
2024/02/28 11:24:44;;;;;;;;;;;;;;;17.38;49.27;100099.06;5070914;28;20355;-82
2024/02/28 11:27:13;;;;;;;;;;;;;;;17.48;48.80;100092.25;5071891;28;19970;-81
2024/02/28 11:29:38;;;;;;;;;;;;;;;17.63;48.37;100092.00;5047087;28;19917;-82
2024/02/28 11:32:04;;;;;;;;;;;;;;;17.78;49.27;100091.78;5067618;28;19999;-82
2024/02/28 11:34:30;;;;;;;;;;;;;;;17.88;47.92;100083.34;5056984;28;19920;-81
2024/02/28 11:36:55;;;;;;;;;;;;;;;17.98;48.39;100081.03;5043461;28;19917;-81
2024/02/28 11:39:24;;;;;;;;;;;;;;;18.05;48.16;100079.16;5065003;28;19917;-80
2024/02/28 11:41:49;;;;;;;;;;;;;;;18.00;48.66;100079.78;5070983;28;19923;-80
2024/02/28 11:44:15;;;;;;;;;;;;;;;18.00;48.50;100078.97;5052127;28;20321;-81
2024/02/28 11:46:50;;;;;;;;;;;;;;;17.96;48.05;100078.56;5054223;28;19964;-81
2024/02/28 11:49:15;;;;;;;;;;;;;;;17.88;48.46;100064.63;5052458;28;19920;-80
2024/02/28 11:51:42;;;;;;;;;;;;;;;17.84;48.38;100063.44;5052262;28;20348;-80
2024/02/28 11:54:08;;;;;;;;;;;;;;;17.83;48.53;100070.59;5031246;28;20457;-81
2024/02/28 11:56:33;;;;;;;;;;;;;;;17.83;48.63;100065.25;5044202;28;20551;-81
2024/02/28 11:58:59;;;;;;;;;;;;;;;17.79;49.27;100061.34;5060641;28;19940;-80
2024/02/28 12:01:33;;;;;;;;;;;;;;;17.69;48.59;100056.47;5070122;28;19927;-81
2024/02/28 12:03:58;;;;;;;;;;;;;;;17.64;49.22;100055.44;5058680;28;20389;-81
2024/02/28 12:06:24;;;;;;;;;;;;;;;17.61;49.72;100056.69;5051992;28;19934;-80
2024/02/28 12:08:50;;;;;;;;;;;;;;;17.57;49.52;100044.78;5051946;28;19936;-80
2024/02/28 12:11:15;;;;;;;;;;;;;;;17.57;49.60;100044.78;5052038;28;20320;-80
2024/02/28 12:13:40;;;;;;;;;;;;;;;17.59;49.63;100041.91;5051363;28;19935;-80
2024/02/28 12:16:07;;;;;;;;;;;;;;;17.57;49.76;100035.94;5034334;28;19917;-81
2024/02/28 12:18:32;;;;;;;;;;;;;;;17.58;49.84;100029.56;5044996;28;20005;-80
2024/02/28 12:20:58;;;;;;;;;;;;;;;17.57;49.67;100028.75;5055252;28;20439;-82
2024/02/28 12:23:23;;;;;;;;;;;;;;;17.57;49.83;100023.41;5036320;28;19909;-82
2024/02/28 12:25:48;;;;;;;;;;;;;;;17.58;49.60;100009.03;5080476;28;19939;-80
2024/02/28 12:28:14;;;;;;;;;;;;;;;17.60;49.83;100019.50;5040738;28;20382;-80
2024/02/28 12:30:42;;;;;;;;;;;;;;;17.64;49.70;100013.53;5066169;28;19916;-82
2024/02/28 12:33:07;;;;;;;;;;;;;;;17.74;49.75;100013.09;5050447;28;19917;-82
2024/02/28 12:35:32;;;;;;;;;;;;;;;17.86;49.18;100018.63;5042368;28;19917;-81